Time;durP1;ratioP1;P1;durP2;ratioP2;P2;SDS_P1;SDS_P2;PMS_P1;PMS_P2;Temp;Humidity;BMP_temperature;BMP_pressure;BME280_temperature;BME280_humidity;BME280_pressure;Samples;Min_cycle;Max_cycle;Signal;HPM_P1;HPM_P2
2023/10/22 00:00:17;;;;;;;;;;;;;;;10.95;100.00;99744.06;110740;1213;125321;-67
2023/10/22 00:02:42;;;;;;;;;;;;;;;10.97;100.00;99743.71;110832;1209;97675;-67
2023/10/22 00:05:08;;;;;;;;;;;;;;;10.98;100.00;99742.79;110781;1213;125776;-66
2023/10/22 00:07:34;;;;;;;;;;;;;;;10.99;100.00;99741.80;110792;1212;97626;-66
2023/10/22 00:09:59;;;;;;;;;;;;;;;11.02;100.00;99753.98;110867;1209;98539;-67
2023/10/22 00:12:25;;;;;;;;;;;;;;;11.04;100.00;99754.74;110791;1213;127056;-66
2023/10/22 00:14:50;;;;;;;;;;;;;;;11.05;100.00;99762.76;110786;1210;97666;-65
2023/10/22 00:17:18;;;;;;;;;;;;;;;11.05;100.00;99765.95;110805;1209;124900;-66
2023/10/22 00:19:43;;;;;;;;;;;;;;;11.06;100.00;99768.57;110839;1212;100348;-66
2023/10/22 00:22:10;;;;;;;;;;;;;;;11.07;100.00;99765.11;110821;1212;97908;-66
2023/10/22 00:24:36;;;;;;;;;;;;;;;11.09;100.00;99761.98;110743;1212;125347;-67
2023/10/22 00:27:01;;;;;;;;;;;;;;;11.11;100.00;99762.18;110900;1212;97633;-67
2023/10/22 00:29:27;;;;;;;;;;;;;;;11.13;100.00;99762.78;110744;1209;125317;-67
2023/10/22 00:31:52;;;;;;;;;;;;;;;11.16;100.00;99760.48;110879;1212;99892;-67
2023/10/22 00:34:17;;;;;;;;;;;;;;;11.17;100.00;99762.05;110794;1210;97605;-68
2023/10/22 00:36:46;;;;;;;;;;;;;;;11.20;100.00;99760.59;110803;1210;125021;-67
2023/10/22 00:39:11;;;;;;;;;;;;;;;11.21;100.00;99760.56;110768;1212;107825;-67
2023/10/22 00:41:36;;;;;;;;;;;;;;;11.20;100.00;99759.66;110708;1212;125334;-66
2023/10/22 00:44:01;;;;;;;;;;;;;;;11.23;100.00;99747.89;110957;1212;98490;-67
2023/10/22 00:46:27;;;;;;;;;;;;;;;11.26;100.00;99751.09;110731;1212;124913;-66
2023/10/22 00:48:53;;;;;;;;;;;;;;;11.27;100.00;99749.96;110871;1225;97616;-67
2023/10/22 00:51:19;;;;;;;;;;;;;;;11.28;100.00;99753.13;110785;1210;97031;-67
2023/10/22 00:53:45;;;;;;;;;;;;;;;11.29;100.00;99751.96;110722;1212;125176;-67
2023/10/22 00:56:11;;;;;;;;;;;;;;;11.30;100.00;99754.97;110812;1209;97675;-67
2023/10/22 00:58:37;;;;;;;;;;;;;;;11.30;100.00;99757.50;110753;1228;125023;-67
2023/10/22 01:01:06;;;;;;;;;;;;;;;11.29;100.00;99760.56;110855;1212;98379;-67
2023/10/22 01:03:31;;;;;;;;;;;;;;;11.29;100.00;99760.95;110949;1213;111824;-67
2023/10/22 01:05:56;;;;;;;;;;;;;;;11.29;100.00;99749.81;110709;1212;124978;-67
2023/10/22 01:08:21;;;;;;;;;;;;;;;11.31;100.00;99747.94;110871;1209;98270;-67
2023/10/22 01:10:47;;;;;;;;;;;;;;;11.33;100.00;99745.31;110721;1213;125211;-67
2023/10/22 01:13:13;;;;;;;;;;;;;;;11.36;100.00;99745.13;110793;1213;97730;-67
2023/10/22 01:15:38;;;;;;;;;;;;;;;11.38;100.00;99744.62;110835;1210;108016;-67
2023/10/22 01:18:04;;;;;;;;;;;;;;;11.41;100.00;99748.56;110746;1208;125082;-67
2023/10/22 01:20:29;;;;;;;;;;;;;;;11.40;100.00;99744.16;110829;1212;97721;-67
2023/10/22 01:22:54;;;;;;;;;;;;;;;11.42;100.00;99744.96;110731;1209;125546;-67
2023/10/22 01:25:19;;;;;;;;;;;;;;;11.45;100.00;99739.23;110796;1213;97717;-67
2023/10/22 01:27:44;;;;;;;;;;;;;;;11.47;100.00;99731.23;110818;1208;97597;-67
2023/10/22 01:30:10;;;;;;;;;;;;;;;11.47;100.00;99731.40;110796;1209;126600;-67
2023/10/22 01:32:35;;;;;;;;;;;;;;;11.46;100.00;99733.23;110827;1212;97619;-67
2023/10/22 01:35:01;;;;;;;;;;;;;;;11.46;100.00;99735.02;110731;1209;126653;-67
2023/10/22 01:37:26;;;;;;;;;;;;;;;11.47;100.00;99738.00;110902;1212;97692;-67
2023/10/22 01:39:52;;;;;;;;;;;;;;;11.50;100.00;99734.11;110818;1212;97710;-67
2023/10/22 01:42:18;;;;;;;;;;;;;;;11.52;100.00;99738.21;110657;1225;125073;-67
2023/10/22 01:44:43;;;;;;;;;;;;;;;11.54;100.00;99741.17;110880;1212;97644;-67
2023/10/22 01:47:10;;;;;;;;;;;;;;;11.57;100.00;99746.19;110679;1209;125004;-67
2023/10/22 01:49:36;;;;;;;;;;;;;;;11.58;100.00;99742.92;110767;1213;100724;-67
2023/10/22 01:52:01;;;;;;;;;;;;;;;11.60;100.00;99745.46;110815;1213;97700;-67
2023/10/22 01:54:26;;;;;;;;;;;;;;;11.59;100.00;99744.45;110670;1209;125603;-67
2023/10/22 01:56:51;;;;;;;;;;;;;;;11.57;100.00;99749.02;110870;1212;97710;-67
2023/10/22 01:59:16;;;;;;;;;;;;;;;11.58;100.00;99749.36;110736;1212;126413;-67
2023/10/22 02:01:42;;;;;;;;;;;;;;;11.60;100.00;99752.27;110833;1212;97693;-67
2023/10/22 02:04:08;;;;;;;;;;;;;;;11.61;100.00;99756.81;110938;1212;97725;-67
2023/10/22 02:06:33;;;;;;;;;;;;;;;11.64;100.00;99755.04;110690;1209;124973;-67
2023/10/22 02:09:00;;;;;;;;;;;;;;;11.65;100.00;99754.77;110864;1209;97644;-67
2023/10/22 02:11:25;;;;;;;;;;;;;;;11.66;100.00;99751.88;110716;1213;126147;-67
2023/10/22 02:13:50;;;;;;;;;;;;;;;11.66;100.00;99752.05;110853;1210;97684;-67
2023/10/22 02:16:15;;;;;;;;;;;;;;;11.67;100.00;99751.98;110891;1213;97578;-66
2023/10/22 02:18:40;;;;;;;;;;;;;;;11.68;100.00;99749.38;110714;1213;125556;-67
2023/10/22 02:21:06;;;;;;;;;;;;;;;11.69;100.00;99751.49;110934;1209;97622;-67
2023/10/22 02:23:31;;;;;;;;;;;;;;;11.70;100.00;99748.74;110673;1212;124827;-67
2023/10/22 02:25:56;;;;;;;;;;;;;;;11.71;100.00;99741.15;110898;1212;97725;-68
2023/10/22 02:28:21;;;;;;;;;;;;;;;11.71;100.00;99736.67;110892;1209;96557;-67
2023/10/22 02:30:50;;;;;;;;;;;;;;;11.71;100.00;99729.17;110799;1212;127402;-67
2023/10/22 02:33:16;;;;;;;;;;;;;;;11.73;100.00;99732.10;110885;1209;97610;-67
2023/10/22 02:35:44;;;;;;;;;;;;;;;11.77;100.00;99735.98;110790;1212;125943;-67
2023/10/22 02:38:12;;;;;;;;;;;;;;;11.79;100.00;99736.41;110819;1212;97654;-67
2023/10/22 02:40:38;;;;;;;;;;;;;;;11.81;100.00;99740.21;110732;1212;125192;-67
2023/10/22 02:43:03;;;;;;;;;;;;;;;11.82;100.00;99740.33;110745;1208;96579;-67
2023/10/22 02:45:28;;;;;;;;;;;;;;;11.83;100.00;99741.89;110828;1212;97693;-67
2023/10/22 02:47:55;;;;;;;;;;;;;;;11.81;100.00;99738.40;110761;1210;127114;-67
2023/10/22 02:50:20;;;;;;;;;;;;;;;11.81;100.00;99735.91;110827;1209;97721;-67
2023/10/22 02:52:46;;;;;;;;;;;;;;;11.84;100.00;99735.60;110796;1212;125694;-67
2023/10/22 02:55:11;;;;;;;;;;;;;;;11.85;100.00;99730.27;110778;1212;97575;-67
2023/10/22 02:57:36;;;;;;;;;;;;;;;11.87;100.00;99732.17;110867;1212;97806;-67
2023/10/22 03:00:01;;;;;;;;;;;;;;;11.86;100.00;99727.71;110715;1212;125767;-67
2023/10/22 03:02:27;;;;;;;;;;;;;;;11.86;100.00;99727.91;110873;1215;97573;-67
2023/10/22 03:04:52;;;;;;;;;;;;;;;11.87;100.00;99729.43;110735;1211;125509;-66
2023/10/22 03:07:17;;;;;;;;;;;;;;;11.87;100.00;99733.02;110825;1212;96861;-67
2023/10/22 03:09:42;;;;;;;;;;;;;;;11.89;100.00;99733.82;110904;1212;100548;-68
2023/10/22 03:12:08;;;;;;;;;;;;;;;11.91;100.00;99731.91;110758;1210;125469;-68
2023/10/22 03:14:33;;;;;;;;;;;;;;;11.94;100.00;99734.72;110886;1210;98417;-65
2023/10/22 03:16:58;;;;;;;;;;;;;;;11.97;100.00;99733.13;110711;1212;125662;-65
2023/10/22 03:19:24;;;;;;;;;;;;;;;11.98;100.00;99733.24;110818;1228;97725;-66
2023/10/22 03:21:49;;;;;;;;;;;;;;;11.98;100.00;99736.98;110850;1211;98055;-65
2023/10/22 03:24:17;;;;;;;;;;;;;;;12.00;100.00;99735.98;110692;1208;124817;-66
2023/10/22 03:26:42;;;;;;;;;;;;;;;12.00;100.00;99734.56;110820;1212;97711;-66
2023/10/22 03:29:07;;;;;;;;;;;;;;;12.00;100.00;99737.38;110775;1209;127275;-65
2023/10/22 03:31:33;;;;;;;;;;;;;;;12.00;100.00;99734.70;110849;1221;96450;-66
2023/10/22 03:33:58;;;;;;;;;;;;;;;12.02;100.00;99740.67;110841;1212;97697;-65
2023/10/22 03:36:24;;;;;;;;;;;;;;;12.03;100.00;99741.50;110765;1209;124812;-66
2023/10/22 03:38:49;;;;;;;;;;;;;;;12.05;100.00;99745.14;110786;1213;97777;-65
2023/10/22 03:41:14;;;;;;;;;;;;;;;12.07;100.00;99747.36;110750;1212;125119;-65
2023/10/22 03:43:40;;;;;;;;;;;;;;;12.09;100.00;99752.27;110843;1209;97405;-65
2023/10/22 03:46:05;;;;;;;;;;;;;;;12.09;100.00;99748.14;110889;1208;97638;-65
2023/10/22 03:48:30;;;;;;;;;;;;;;;12.10;100.00;99753.62;110754;1208;125530;-66
2023/10/22 03:50:56;;;;;;;;;;;;;;;12.11;100.00;99758.77;110814;1212;97703;-65
2023/10/22 03:53:21;;;;;;;;;;;;;;;12.10;100.00;99760.98;110771;1212;125349;-64
2023/10/22 03:55:47;;;;;;;;;;;;;;;12.09;100.00;99758.86;110872;1208;97199;-67
2023/10/22 03:58:12;;;;;;;;;;;;;;;12.11;100.00;99757.52;110828;1212;97693;-67
2023/10/22 04:00:38;;;;;;;;;;;;;;;12.12;100.00;99754.19;110750;1209;127768;-67
2023/10/22 04:03:04;;;;;;;;;;;;;;;12.15;100.00;99747.40;110829;1213;97664;-67
2023/10/22 04:05:29;;;;;;;;;;;;;;;12.17;100.00;99741.16;110683;1209;125120;-67
2023/10/22 04:07:54;;;;;;;;;;;;;;;12.19;100.00;99738.31;110924;1209;97564;-67
2023/10/22 04:10:19;;;;;;;;;;;;;;;12.19;100.00;99729.56;110764;1212;100594;-67
2023/10/22 04:12:45;;;;;;;;;;;;;;;12.20;100.00;99723.40;110797;1221;125206;-67
2023/10/22 04:15:10;;;;;;;;;;;;;;;12.20;100.00;99723.98;110837;1212;97638;-67
2023/10/22 04:17:35;;;;;;;;;;;;;;;12.18;100.00;99720.13;110911;1208;125359;-67
2023/10/22 04:20:01;;;;;;;;;;;;;;;12.18;100.00;99715.29;110922;1228;97676;-67
2023/10/22 04:22:29;;;;;;;;;;;;;;;12.19;100.00;99714.15;110722;1208;125521;-67
2023/10/22 04:24:54;;;;;;;;;;;;;;;12.21;100.00;99712.78;110886;1208;97585;-67
2023/10/22 04:27:19;;;;;;;;;;;;;;;12.24;100.00;99716.19;110847;1212;98045;-67
2023/10/22 04:29:46;;;;;;;;;;;;;;;12.25;100.00;99718.20;110736;1208;125605;-68
2023/10/22 04:32:14;;;;;;;;;;;;;;;12.28;100.00;99718.77;110792;1209;98468;-68
2023/10/22 04:34:39;;;;;;;;;;;;;;;12.28;100.00;99721.42;110723;1212;126319;-68
2023/10/22 04:37:06;;;;;;;;;;;;;;;12.28;100.00;99716.94;110910;1208;97734;-67
2023/10/22 04:39:31;;;;;;;;;;;;;;;12.27;100.00;99717.39;110945;1212;97715;-67
2023/10/22 04:41:56;;;;;;;;;;;;;;;12.27;100.00;99715.58;110691;1209;125613;-65
2023/10/22 04:44:24;;;;;;;;;;;;;;;12.28;100.00;99717.30;110879;1213;97373;-66
2023/10/22 04:46:51;;;;;;;;;;;;;;;12.27;100.00;99713.46;110719;1208;125136;-65
2023/10/22 04:49:16;;;;;;;;;;;;;;;12.26;100.00;99715.63;110783;1213;97681;-66
2023/10/22 04:51:41;;;;;;;;;;;;;;;12.27;100.00;99717.77;110914;1210;97619;-66
2023/10/22 04:54:06;;;;;;;;;;;;;;;12.27;100.00;99712.52;110782;1224;125160;-67
2023/10/22 04:56:32;;;;;;;;;;;;;;;12.29;100.00;99705.96;110811;1212;97611;-67
2023/10/22 04:58:57;;;;;;;;;;;;;;;12.30;100.00;99711.25;110778;1209;125070;-67
2023/10/22 05:01:22;;;;;;;;;;;;;;;12.32;100.00;99711.13;110709;1213;97907;-66
2023/10/22 05:03:47;;;;;;;;;;;;;;;12.35;100.00;99707.36;110834;1212;97724;-66
2023/10/22 05:06:12;;;;;;;;;;;;;;;12.38;100.00;99705.07;110648;1213;125336;-66
2023/10/22 05:08:38;;;;;;;;;;;;;;;12.40;100.00;99705.94;110961;1212;97599;-66
2023/10/22 05:11:05;;;;;;;;;;;;;;;12.43;100.00;99708.81;110716;1209;124915;-66
2023/10/22 05:13:31;;;;;;;;;;;;;;;12.44;100.00;99709.80;110824;1213;97709;-66
2023/10/22 05:15:56;;;;;;;;;;;;;;;12.46;100.00;99710.77;110831;1208;97628;-67
2023/10/22 05:18:22;;;;;;;;;;;;;;;12.48;100.00;99712.61;110795;1212;126597;-67
2023/10/22 05:20:48;;;;;;;;;;;;;;;12.48;100.00;99713.69;110816;1211;98510;-67
2023/10/22 05:23:13;;;;;;;;;;;;;;;12.49;100.00;99715.23;110691;1212;125405;-67
2023/10/22 05:25:39;;;;;;;;;;;;;;;12.49;100.00;99716.86;110894;1209;96454;-67
2023/10/22 05:28:04;;;;;;;;;;;;;;;12.50;100.00;99720.90;110902;1220;97800;-67
2023/10/22 05:30:32;;;;;;;;;;;;;;;12.50;100.00;99725.91;110797;1212;125235;-67
2023/10/22 05:32:57;;;;;;;;;;;;;;;12.50;100.00;99724.98;110842;1208;108038;-66
2023/10/22 05:35:22;;;;;;;;;;;;;;;12.51;100.00;99734.27;110730;1209;125448;-66
2023/10/22 05:37:49;;;;;;;;;;;;;;;12.51;100.00;99734.64;110936;1208;97889;-66
2023/10/22 05:40:15;;;;;;;;;;;;;;;12.49;100.00;99738.52;110832;1209;98363;-67
2023/10/22 05:42:41;;;;;;;;;;;;;;;12.47;100.00;99742.57;110724;1213;126019;-67
2023/10/22 05:45:06;;;;;;;;;;;;;;;12.45;100.00;99749.51;110923;1209;97597;-67
2023/10/22 05:47:32;;;;;;;;;;;;;;;12.43;100.00;99748.27;110713;1209;124975;-67
2023/10/22 05:50:00;;;;;;;;;;;;;;;12.41;100.00;99756.77;110851;1211;98894;-67
2023/10/22 05:52:26;;;;;;;;;;;;;;;12.41;100.00;99759.80;110686;1208;124992;-66
2023/10/22 05:54:52;;;;;;;;;;;;;;;12.40;100.00;99759.19;110933;1212;97798;-66
2023/10/22 05:57:20;;;;;;;;;;;;;;;12.38;100.00;99764.36;110873;1209;98437;-66
2023/10/22 05:59:45;;;;;;;;;;;;;;;12.37;100.00;99764.20;110736;1208;125360;-67
2023/10/22 06:02:10;;;;;;;;;;;;;;;12.36;100.00;99763.56;110826;1220;97741;-67
2023/10/22 06:04:35;;;;;;;;;;;;;;;12.33;100.00;99766.58;110768;1209;126337;-67
2023/10/22 06:07:00;;;;;;;;;;;;;;;12.31;100.00;99763.70;110880;1212;97787;-66
2023/10/22 06:09:25;;;;;;;;;;;;;;;12.29;100.00;99765.05;110936;1212;97649;-66
2023/10/22 06:11:51;;;;;;;;;;;;;;;12.28;100.00;99761.77;110692;1212;124965;-67
2023/10/22 06:14:16;;;;;;;;;;;;;;;12.27;100.00;99763.21;110876;1209;97697;-67
2023/10/22 06:16:41;;;;;;;;;;;;;;;12.27;100.00;99764.15;110669;1228;125127;-66
2023/10/22 06:19:06;;;;;;;;;;;;;;;12.25;100.00;99764.59;110943;1211;97811;-66
2023/10/22 06:21:31;;;;;;;;;;;;;;;12.23;100.00;99766.00;110795;1208;99993;-66
2023/10/22 06:23:56;;;;;;;;;;;;;;;12.22;100.00;99772.17;110810;1214;124672;-66
2023/10/22 06:26:21;;;;;;;;;;;;;;;12.22;100.00;99776.29;110902;1210;97739;-67
2023/10/22 06:28:47;;;;;;;;;;;;;;;12.20;100.00;99779.83;110782;1231;125630;-67
2023/10/22 06:31:13;;;;;;;;;;;;;;;12.17;100.00;99781.80;110864;1212;97672;-66
2023/10/22 06:33:39;;;;;;;;;;;;;;;12.15;100.00;99785.33;110786;1208;97693;-66
2023/10/22 06:36:11;;;;;;;;;;;;;;;12.14;100.00;99783.98;110947;1211;125351;-66
2023/10/22 06:38:37;;;;;;;;;;;;;;;12.09;100.00;99783.02;110938;1211;98903;-67
2023/10/22 06:41:02;;;;;;;;;;;;;;;12.08;100.00;99778.98;110796;1222;125482;-66
2023/10/22 06:43:27;;;;;;;;;;;;;;;12.07;100.00;99776.16;110924;1212;97667;-66
2023/10/22 06:45:52;;;;;;;;;;;;;;;12.06;100.00;99778.56;110877;1208;97703;-67
2023/10/22 06:48:17;;;;;;;;;;;;;;;12.06;100.00;99776.45;110773;1213;126731;-66
2023/10/22 06:50:43;;;;;;;;;;;;;;;12.06;100.00;99778.22;110850;1212;97691;-66
2023/10/22 06:53:09;;;;;;;;;;;;;;;12.05;100.00;99773.46;110804;1212;125507;-66
2023/10/22 06:55:40;;;;;;;;;;;;;;;12.04;100.00;99778.49;110854;1212;97677;-66
2023/10/22 06:58:08;;;;;;;;;;;;;;;12.01;100.00;99776.75;110870;1227;97587;-67
2023/10/22 07:00:36;;;;;;;;;;;;;;;11.98;100.00;99776.70;110747;1214;125707;-66
2023/10/22 07:03:01;;;;;;;;;;;;;;;11.99;100.00;99775.95;110887;1213;98831;-66
2023/10/22 07:05:26;;;;;;;;;;;;;;;12.00;100.00;99778.05;110701;1213;124962;-66
2023/10/22 07:07:51;;;;;;;;;;;;;;;12.01;100.00;99775.65;110818;1211;98246;-66
2023/10/22 07:10:17;;;;;;;;;;;;;;;11.99;100.00;99776.33;110785;1209;97653;-66
2023/10/22 07:12:42;;;;;;;;;;;;;;;11.96;100.00;99775.79;110834;1211;126056;-66
2023/10/22 07:15:09;;;;;;;;;;;;;;;11.94;100.00;99774.46;110886;1208;97722;-66
2023/10/22 07:17:34;;;;;;;;;;;;;;;11.94;100.00;99773.22;110844;1209;124687;-66
2023/10/22 07:19:59;;;;;;;;;;;;;;;11.92;100.00;99775.87;110933;1209;97610;-66
2023/10/22 07:22:25;;;;;;;;;;;;;;;11.89;100.00;99774.23;110809;1213;97735;-66
2023/10/22 07:24:50;;;;;;;;;;;;;;;11.87;100.00;99773.16;110843;1208;127180;-65
2023/10/22 07:27:15;;;;;;;;;;;;;;;11.86;100.00;99772.64;110835;1212;112322;-66
2023/10/22 07:29:40;;;;;;;;;;;;;;;11.87;100.00;99776.34;110667;1212;124976;-66
2023/10/22 07:32:06;;;;;;;;;;;;;;;11.87;100.00;99779.07;110861;1212;97598;-66
2023/10/22 07:34:31;;;;;;;;;;;;;;;11.86;100.00;99776.95;110787;1212;125595;-66
2023/10/22 07:36:56;;;;;;;;;;;;;;;11.88;100.00;99775.60;110995;1212;97761;-66
2023/10/22 07:39:22;;;;;;;;;;;;;;;11.87;100.00;99776.33;110831;1212;97658;-66
2023/10/22 07:41:47;;;;;;;;;;;;;;;11.86;100.00;99779.27;110721;1208;125087;-66
2023/10/22 07:44:13;;;;;;;;;;;;;;;11.87;100.00;99780.64;110869;1210;98035;-66
2023/10/22 07:46:38;;;;;;;;;;;;;;;11.89;100.00;99779.13;110776;1209;125088;-66
2023/10/22 07:49:03;;;;;;;;;;;;;;;11.88;100.00;99777.53;110902;1208;97605;-66
2023/10/22 07:51:29;;;;;;;;;;;;;;;11.89;100.00;99777.30;110859;1213;97658;-66
2023/10/22 07:53:54;;;;;;;;;;;;;;;11.90;100.00;99778.52;110726;1212;124898;-66
2023/10/22 07:56:19;;;;;;;;;;;;;;;11.90;100.00;99779.41;110843;1212;97616;-66
2023/10/22 07:58:45;;;;;;;;;;;;;;;11.89;100.00;99782.48;110740;1212;125713;-66
2023/10/22 08:01:10;;;;;;;;;;;;;;;11.89;100.00;99781.77;110879;1209;97590;-66
2023/10/22 08:03:35;;;;;;;;;;;;;;;11.89;100.00;99789.27;110901;1208;96933;-66
2023/10/22 08:06:01;;;;;;;;;;;;;;;11.89;100.00;99785.88;110792;1208;125606;-67
2023/10/22 08:08:26;;;;;;;;;;;;;;;11.92;100.00;99786.61;110839;1212;97726;-66
2023/10/22 08:10:55;;;;;;;;;;;;;;;11.95;100.00;99786.20;110748;1208;126849;-66
2023/10/22 08:13:20;;;;;;;;;;;;;;;11.97;100.00;99788.06;110898;1212;97615;-66
2023/10/22 08:15:47;;;;;;;;;;;;;;;11.97;100.00;99789.48;110879;1208;97713;-66
2023/10/22 08:18:12;;;;;;;;;;;;;;;11.97;100.00;99790.56;110769;1208;125316;-66
2023/10/22 08:20:37;;;;;;;;;;;;;;;12.00;100.00;99787.55;110810;1213;97716;-67
2023/10/22 08:23:02;;;;;;;;;;;;;;;12.04;100.00;99786.56;110871;1208;125921;-67
2023/10/22 08:25:27;;;;;;;;;;;;;;;12.05;100.00;99783.84;110827;1212;97000;-67
2023/10/22 08:27:53;;;;;;;;;;;;;;;12.09;100.00;99791.09;110930;1210;97583;-67
2023/10/22 08:30:19;;;;;;;;;;;;;;;12.15;100.00;99789.83;110780;1209;125084;-67
2023/10/22 08:32:46;;;;;;;;;;;;;;;12.18;100.00;99790.72;110856;1212;97648;-67
2023/10/22 08:35:11;;;;;;;;;;;;;;;12.22;100.00;99790.98;110654;1213;127187;-67
2023/10/22 08:37:37;;;;;;;;;;;;;;;12.25;100.00;99793.09;110969;1214;98042;-67
2023/10/22 08:40:06;;;;;;;;;;;;;;;12.27;100.00;99790.10;110901;1212;97736;-67
2023/10/22 08:42:32;;;;;;;;;;;;;;;12.29;100.00;99790.90;110656;1212;125005;-69
2023/10/22 08:44:57;;;;;;;;;;;;;;;12.32;100.00;99789.04;110865;1220;97600;-67
2023/10/22 08:47:23;;;;;;;;;;;;;;;12.38;100.00;99796.58;110834;1221;124838;-67
2023/10/22 08:49:49;;;;;;;;;;;;;;;12.43;100.00;99794.80;110856;1208;97733;-67
2023/10/22 08:52:15;;;;;;;;;;;;;;;12.50;100.00;99797.45;110768;1208;97672;-66
2023/10/22 08:54:40;;;;;;;;;;;;;;;12.55;100.00;99796.17;110762;1212;125369;-68
2023/10/22 08:57:05;;;;;;;;;;;;;;;12.60;100.00;99797.27;110864;1208;97707;-68
2023/10/22 08:59:33;;;;;;;;;;;;;;;12.69;100.00;99797.98;110736;1211;124743;-66
2023/10/22 09:02:00;;;;;;;;;;;;;;;12.77;100.00;99797.27;110796;1208;98838;-66
2023/10/22 09:04:25;;;;;;;;;;;;;;;12.81;100.00;99797.01;110733;1213;125453;-66
2023/10/22 09:06:54;;;;;;;;;;;;;;;12.82;100.00;99800.88;110961;1212;98875;-66
2023/10/22 09:09:48;;;;;;;;;;;;;;;12.84;100.00;99802.55;110820;1211;100047;-66
2023/10/22 09:12:14;;;;;;;;;;;;;;;12.83;100.00;99803.30;110671;1209;125139;-66
2023/10/22 09:14:41;;;;;;;;;;;;;;;12.84;100.00;99804.14;110866;1213;97770;-66
2023/10/22 09:17:19;;;;;;;;;;;;;;;12.85;100.00;99807.63;110703;1208;124998;-67
2023/10/22 09:19:48;;;;;;;;;;;;;;;12.85;100.00;99807.27;110904;1210;112086;-67
2023/10/22 09:22:24;;;;;;;;;;;;;;;12.84;100.00;99808.96;110846;1210;100199;-67
2023/10/22 09:24:51;;;;;;;;;;;;;;;12.82;100.00;99810.36;110795;1208;127117;-67
2023/10/22 09:27:23;;;;;;;;;;;;;;;12.81;100.00;99810.42;110827;1208;97728;-68
2023/10/22 09:29:52;;;;;;;;;;;;;;;12.86;100.00;99814.63;110700;1209;125536;-67
2023/10/22 09:32:18;;;;;;;;;;;;;;;12.88;100.00;99820.16;110877;1211;113780;-67
2023/10/22 09:34:43;;;;;;;;;;;;;;;12.89;100.00;99822.80;110835;1208;125701;-67
2023/10/22 09:37:08;;;;;;;;;;;;;;;12.91;100.00;99823.92;110898;1225;97901;-67
2023/10/22 09:39:37;;;;;;;;;;;;;;;12.91;100.00;99827.52;110800;1208;99109;-68
2023/10/22 09:42:04;;;;;;;;;;;;;;;12.93;100.00;99829.16;110728;1213;125525;-67
2023/10/22 09:44:30;;;;;;;;;;;;;;;12.97;100.00;99829.48;110906;1209;97576;-67
2023/10/22 09:46:55;;;;;;;;;;;;;;;12.99;100.00;99829.70;110696;1212;125217;-67
2023/10/22 09:49:22;;;;;;;;;;;;;;;12.98;100.00;99830.48;110858;1208;97600;-67
2023/10/22 09:51:49;;;;;;;;;;;;;;;12.92;100.00;99833.00;110817;1208;98019;-67
2023/10/22 09:54:15;;;;;;;;;;;;;;;12.91;100.00;99830.77;110686;1209;124824;-67
2023/10/22 09:56:51;;;;;;;;;;;;;;;12.90;100.00;99832.42;110864;1213;97716;-67
2023/10/22 09:59:20;;;;;;;;;;;;;;;12.89;100.00;99829.79;110718;1224;125007;-67
2023/10/22 10:01:45;;;;;;;;;;;;;;;12.92;100.00;99827.44;110879;1209;96485;-67
2023/10/22 10:04:11;;;;;;;;;;;;;;;12.92;100.00;99828.14;110809;1212;97649;-66
2023/10/22 10:06:36;;;;;;;;;;;;;;;12.90;100.00;99827.23;110790;1213;125222;-67
2023/10/22 10:09:03;;;;;;;;;;;;;;;12.86;100.00;99827.81;110854;1213;97748;-67
2023/10/22 10:11:28;;;;;;;;;;;;;;;12.83;100.00;99827.14;110754;1208;125965;-66
2023/10/22 10:13:53;;;;;;;;;;;;;;;12.84;100.00;99829.42;110907;1208;97598;-67
2023/10/22 10:16:22;;;;;;;;;;;;;;;12.82;100.00;99827.42;110833;1212;97670;-67
2023/10/22 10:19:03;;;;;;;;;;;;;;;12.79;100.00;99828.70;110825;1213;124563;-67
2023/10/22 10:21:39;;;;;;;;;;;;;;;12.79;100.00;99833.67;110831;1208;97579;-67
2023/10/22 10:24:30;;;;;;;;;;;;;;;12.76;100.00;99828.89;110724;1208;125092;-67
2023/10/22 10:26:56;;;;;;;;;;;;;;;12.74;100.00;99829.56;110795;1208;99731;-67
2023/10/22 10:29:25;;;;;;;;;;;;;;;12.74;100.00;99830.13;110736;1213;124887;-67
2023/10/22 10:31:52;;;;;;;;;;;;;;;12.75;100.00;99832.91;110842;1208;97736;-68
2023/10/22 10:34:20;;;;;;;;;;;;;;;12.70;100.00;99835.70;110845;1209;96565;-67
2023/10/22 10:36:46;;;;;;;;;;;;;;;12.62;100.00;99836.02;110738;1208;125630;-67
2023/10/22 10:39:37;;;;;;;;;;;;;;;12.56;100.00;99833.18;110797;1212;97616;-67
2023/10/22 10:42:03;;;;;;;;;;;;;;;12.51;100.00;99831.61;110747;1213;124906;-67
2023/10/22 10:44:29;;;;;;;;;;;;;;;12.46;100.00;99833.36;110824;1208;97584;-68
2023/10/22 10:46:54;;;;;;;;;;;;;;;12.45;100.00;99830.16;110846;1212;125535;-69
2023/10/22 10:49:38;;;;;;;;;;;;;;;12.40;100.00;99834.23;110814;1209;97594;-69
2023/10/22 10:52:03;;;;;;;;;;;;;;;12.34;100.00;99832.86;110869;1211;107944;-69
2023/10/22 10:54:28;;;;;;;;;;;;;;;12.33;100.00;99832.18;110768;1213;124960;-68
2023/10/22 10:56:55;;;;;;;;;;;;;;;12.29;100.00;99836.16;110955;1212;97732;-70
2023/10/22 10:59:36;;;;;;;;;;;;;;;12.26;100.00;99837.64;110675;1213;124875;-69
2023/10/22 11:02:11;;;;;;;;;;;;;;;12.25;100.00;99836.30;110649;1213;107763;-69
2023/10/22 11:04:38;;;;;;;;;;;;;;;12.19;100.00;99835.98;110828;1213;125143;-68
2023/10/22 11:07:04;;;;;;;;;;;;;;;12.15;100.00;99841.77;110861;1211;96473;-68
2023/10/22 11:09:34;;;;;;;;;;;;;;;12.11;100.00;99841.63;110803;1209;99063;-68
2023/10/22 11:12:03;;;;;;;;;;;;;;;12.07;100.00;99840.61;110781;1214;125540;-68
2023/10/22 11:14:28;;;;;;;;;;;;;;;12.04;100.00;99847.28;110753;1213;105935;-67
2023/10/22 11:16:55;;;;;;;;;;;;;;;12.02;100.00;99845.63;110757;1214;125992;-65
2023/10/22 11:19:21;;;;;;;;;;;;;;;12.03;100.00;99850.39;110951;1213;98617;-66
2023/10/22 11:21:46;;;;;;;;;;;;;;;12.09;100.00;99850.57;110989;1211;97632;-66
2023/10/22 11:24:12;;;;;;;;;;;;;;;12.14;100.00;99851.29;110783;1214;124858;-66
2023/10/22 11:26:37;;;;;;;;;;;;;;;12.17;100.00;99852.02;110872;1214;97600;-66
2023/10/22 11:29:02;;;;;;;;;;;;;;;12.15;100.00;99859.31;110784;1208;125091;-66
2023/10/22 11:31:27;;;;;;;;;;;;;;;12.13;100.00;99856.38;110850;1213;97797;-66
2023/10/22 11:33:52;;;;;;;;;;;;;;;12.15;100.00;99858.42;110925;1212;97716;-66
2023/10/22 11:36:18;;;;;;;;;;;;;;;12.15;100.00;99861.63;110716;1214;125575;-67
2023/10/22 11:38:43;;;;;;;;;;;;;;;12.15;100.00;99863.07;111012;1211;97683;-67
2023/10/22 11:41:08;;;;;;;;;;;;;;;12.16;100.00;99869.63;110760;1209;125175;-66
2023/10/22 11:43:40;;;;;;;;;;;;;;;12.13;100.00;99873.07;110861;1213;100515;-66
2023/10/22 11:46:06;;;;;;;;;;;;;;;12.03;100.00;99872.05;110864;1209;111139;-66
2023/10/22 11:48:32;;;;;;;;;;;;;;;11.93;100.00;99875.48;110754;1215;126165;-65
2023/10/22 11:50:58;;;;;;;;;;;;;;;11.88;100.00;99881.74;110903;1211;97706;-65
2023/10/22 11:53:26;;;;;;;;;;;;;;;11.85;100.00;99882.29;110903;1213;125723;-65
2023/10/22 11:55:51;;;;;;;;;;;;;;;11.83;100.00;99880.25;110795;1213;112925;-66
2023/10/22 11:58:18;;;;;;;;;;;;;;;11.77;100.00;99887.26;110884;1213;97767;-66
2023/10/22 12:00:44;;;;;;;;;;;;;;;11.61;100.00;99889.25;110810;1214;125149;-66
2023/10/22 12:03:10;;;;;;;;;;;;;;;11.53;100.00;99889.02;110774;1211;97562;-67
2023/10/22 12:05:35;;;;;;;;;;;;;;;11.51;100.00;99889.83;110792;1212;124820;-66
2023/10/22 12:08:00;;;;;;;;;;;;;;;11.47;100.00;99894.37;110890;1213;97611;-67
2023/10/22 12:10:26;;;;;;;;;;;;;;;11.42;100.00;99889.52;110771;1211;124976;-68
2023/10/22 12:12:51;;;;;;;;;;;;;;;11.37;100.00;99893.70;110962;1211;97719;-69
2023/10/22 12:15:16;;;;;;;;;;;;;;;11.38;100.00;99891.65;110782;1213;97644;-69
2023/10/22 12:17:41;;;;;;;;;;;;;;;11.42;100.00;99896.83;110783;1214;125813;-69